createdAt,value
2022-10-10T00:01:25.673Z,18.77
2022-10-10T00:06:19.155Z,18.17
2022-10-10T00:11:13.332Z,21.40
2022-10-10T00:16:07.074Z,21.13
2022-10-10T00:21:00.364Z,19.15
2022-10-10T00:25:53.087Z,23.42
2022-10-10T00:30:46.356Z,19.55
2022-10-10T00:35:39.938Z,21.77
2022-10-10T00:40:33.764Z,18.17
2022-10-10T00:45:48.179Z,19.60
2022-10-10T00:50:49.427Z,16.73
2022-10-10T00:55:44.291Z,19.98
2022-10-10T01:00:38.638Z,12.13
2022-10-10T01:05:33.216Z,11.05
2022-10-10T01:10:27.347Z,17.77
2022-10-10T01:15:52.943Z,11.77
2022-10-10T01:20:57.908Z,12.75
2022-10-10T01:26:15.829Z,12.93
2022-10-10T01:31:11.069Z,9.40
2022-10-10T01:36:05.780Z,11.90
2022-10-10T01:41:09.161Z,9.07
2022-10-10T01:46:11.439Z,9.18
2022-10-10T01:51:26.261Z,13.25
2022-10-10T01:56:37.815Z,9.50
2022-10-10T02:01:56.469Z,9.20
2022-10-10T02:06:57.245Z,7.93
2022-10-10T02:11:51.636Z,9.52
2022-10-10T02:16:48.256Z,11.20
2022-10-10T02:21:42.755Z,12.45
2022-10-10T02:26:37.440Z,10.40
2022-10-10T02:31:39.264Z,12.90
2022-10-10T02:36:32.570Z,9.45
2022-10-10T02:41:26.424Z,13.82
2022-10-10T02:46:19.797Z,10.73
2022-10-10T02:51:13.782Z,12.82
2022-10-10T02:56:08.202Z,10.43
2022-10-10T03:01:02.601Z,12.30
2022-10-10T03:05:56.420Z,10.18
2022-10-10T03:11:01.501Z,8.73
2022-10-10T03:15:55.513Z,8.98
2022-10-10T03:20:53.842Z,12.85
2022-10-10T03:25:48.279Z,11.82
2022-10-10T03:30:42.206Z,12.55
2022-10-10T03:35:36.115Z,11.45
2022-10-10T03:40:29.663Z,11.30
2022-10-10T03:45:23.098Z,12.55
2022-10-10T03:50:16.793Z,7.90
2022-10-10T03:55:10.233Z,8.30
2022-10-10T04:00:04.824Z,8.75
2022-10-10T04:04:57.601Z,12.13
2022-10-10T04:09:51.754Z,10.13
2022-10-10T04:14:45.968Z,7.80
2022-10-10T04:19:40.382Z,11.38
2022-10-10T04:24:34.354Z,9.70
2022-10-10T04:29:32.660Z,9.18
2022-10-10T04:34:27.639Z,13.05
2022-10-10T04:39:21.593Z,12.82
2022-10-10T04:44:15.035Z,17.52
2022-10-10T04:49:08.721Z,11.15
2022-10-10T04:54:06.902Z,10.95
2022-10-10T04:59:00.757Z,8.10
2022-10-10T05:03:54.235Z,8.18
2022-10-10T05:08:48.148Z,8.02
2022-10-10T05:13:41.629Z,11.02
2022-10-10T05:18:37.859Z,9.57
2022-10-10T05:23:31.861Z,12.20
2022-10-10T05:28:25.823Z,7.82
2022-10-10T05:33:19.614Z,9.38
2022-10-10T05:38:14.484Z,9.98
2022-10-10T05:43:08.845Z,7.15
2022-10-10T05:48:02.149Z,10.45
2022-10-10T05:52:55.894Z,9.93
2022-10-10T05:57:50.391Z,13.95
2022-10-10T06:02:43.720Z,15.65
2022-10-10T06:08:02.534Z,12.82
2022-10-10T06:12:50.547Z,14.40
2022-10-10T06:17:45.240Z,15.82
2022-10-10T06:22:39.490Z,10.90
2022-10-10T06:27:33.786Z,13.85
2022-10-10T06:32:26.851Z,16.48
2022-10-10T06:37:20.861Z,15.77
2022-10-10T06:42:15.103Z,13.38
2022-10-10T06:47:08.889Z,11.57
2022-10-10T06:52:02.294Z,9.23
2022-10-10T06:56:56.436Z,13.50
2022-10-10T07:01:50.362Z,14.25
2022-10-10T07:06:45.996Z,9.40
2022-10-10T07:11:40.331Z,12.32
2022-10-10T07:16:34.670Z,15.35
2022-10-10T07:21:28.253Z,7.38
2022-10-10T07:26:23.087Z,13.18
2022-10-10T07:31:16.390Z,7.55
2022-10-10T07:36:09.744Z,10.40
2022-10-10T07:41:09.912Z,14.90
2022-10-10T07:46:05.830Z,7.93
2022-10-10T07:51:02.579Z,16.05
2022-10-10T07:55:56.502Z,11.48
2022-10-10T08:00:50.162Z,15.95
2022-10-10T08:05:44.729Z,8.40
2022-10-10T08:10:39.028Z,10.77
2022-10-10T08:15:34.140Z,12.07
2022-10-10T08:20:27.806Z,11.77
2022-10-10T08:25:22.136Z,11.32
2022-10-10T08:30:16.116Z,9.45
2022-10-10T08:35:09.990Z,12.55
2022-10-10T08:40:03.596Z,13.88
2022-10-10T08:45:01.205Z,10.57
2022-10-10T08:50:07.861Z,19.50
2022-10-10T08:55:04.152Z,13.18
2022-10-10T09:00:02.744Z,17.02
2022-10-10T09:04:57.722Z,11.68
2022-10-10T09:10:25.497Z,14.45
2022-10-10T09:15:53.288Z,10.57
2022-10-10T09:20:57.612Z,9.00
2022-10-10T09:26:01.044Z,14.65
2022-10-10T09:30:57.013Z,17.55
2022-10-10T09:35:51.005Z,12.85
2022-10-10T09:40:55.785Z,11.85
2022-10-10T09:45:53.843Z,11.70
2022-10-10T09:51:06.985Z,8.90
2022-10-10T09:56:00.558Z,10.85
2022-10-10T10:00:57.715Z,9.75
2022-10-10T10:05:57.989Z,13.45
2022-10-10T10:10:51.233Z,7.15
2022-10-10T10:15:49.915Z,9.48
2022-10-10T10:20:52.263Z,13.98
2022-10-10T10:25:45.979Z,10.40
2022-10-10T10:30:43.320Z,10.10
2022-10-10T10:35:43.881Z,14.60
2022-10-10T10:40:44.690Z,7.78
2022-10-10T10:46:12.408Z,12.25
2022-10-10T10:51:17.234Z,18.73
2022-10-10T10:56:15.735Z,9.07
2022-10-10T11:01:56.318Z,9.43
2022-10-10T11:07:19.946Z,21.02
2022-10-10T11:12:33.044Z,9.68
2022-10-10T11:17:50.146Z,11.65
2022-10-10T11:22:49.018Z,10.20
2022-10-10T11:27:52.696Z,10.13
2022-10-10T11:33:01.992Z,15.10
2022-10-10T11:38:02.071Z,15.10
2022-10-10T11:43:06.900Z,14.13
2022-10-10T11:48:11.206Z,14.25
2022-10-10T11:53:29.369Z,17.58
2022-10-10T11:58:36.069Z,18.92
2022-10-10T12:03:29.653Z,14.52
2022-10-10T12:08:28.053Z,11.15
2022-10-10T12:13:46.609Z,13.07
2022-10-10T12:23:41.881Z,10.60
2022-10-10T12:28:56.534Z,13.40
2022-10-10T12:34:11.736Z,10.85
2022-10-10T12:39:08.504Z,9.32
2022-10-10T12:44:04.669Z,10.98
2022-10-10T12:49:20.101Z,9.63
2022-10-10T12:54:24.681Z,11.70
2022-10-10T12:59:24.280Z,13.38
2022-10-10T13:04:18.457Z,10.55
2022-10-10T13:09:12.793Z,12.57
2022-10-10T13:14:09.768Z,13.02
2022-10-10T13:19:03.004Z,9.25
2022-10-10T13:24:09.313Z,8.15
2022-10-10T13:29:17.693Z,13.88
2022-10-10T13:34:16.822Z,12.25
2022-10-10T13:39:19.897Z,14.55
2022-10-10T13:44:21.633Z,12.77
2022-10-10T13:49:20.760Z,10.32
2022-10-10T13:54:35.673Z,10.13
2022-10-10T13:59:30.515Z,14.23
2022-10-10T14:04:25.646Z,12.73
2022-10-10T14:09:50.019Z,11.35
2022-10-10T14:14:49.041Z,11.98
2022-10-10T14:19:43.476Z,11.50
2022-10-10T14:24:37.227Z,11.43
2022-10-10T14:29:30.617Z,14.95
2022-10-10T14:34:24.410Z,12.02
2022-10-10T14:39:19.549Z,9.35
2022-10-10T14:44:12.681Z,13.90
2022-10-10T14:49:09.742Z,11.90
2022-10-10T14:54:13.790Z,11.95
2022-10-10T14:59:13.539Z,13.45
2022-10-10T15:04:07.384Z,10.85
2022-10-10T15:09:01.493Z,11.30
2022-10-10T15:13:55.164Z,12.13
2022-10-10T15:18:54.075Z,10.30
2022-10-10T15:23:48.888Z,15.60
2022-10-10T15:28:42.673Z,12.75
2022-10-10T15:33:36.597Z,11.98
2022-10-10T15:38:30.205Z,15.68
2022-10-10T15:43:23.959Z,11.63
2022-10-10T15:48:18.548Z,13.85
2022-10-10T15:53:13.080Z,11.32
2022-10-10T15:58:06.739Z,18.35
2022-10-10T16:03:00.651Z,12.82
2022-10-10T16:07:54.266Z,12.57
2022-10-10T16:12:48.192Z,13.85
2022-10-10T16:17:42.173Z,14.90
2022-10-10T16:22:35.837Z,15.75
2022-10-10T16:27:29.453Z,15.40
2022-10-10T16:32:25.535Z,15.20
2022-10-10T16:37:21.389Z,15.13
2022-10-10T16:42:17.607Z,14.38
2022-10-10T16:47:12.305Z,19.00
2022-10-10T16:52:06.044Z,19.05
2022-10-10T16:56:59.830Z,27.73
2022-10-10T17:01:57.980Z,28.73
2022-10-10T17:06:52.174Z,21.10
2022-10-10T17:11:51.325Z,14.43
2022-10-10T17:22:10.446Z,17.75
2022-10-10T17:27:07.478Z,14.90
2022-10-10T17:32:07.400Z,18.75
2022-10-10T17:37:06.544Z,21.70
2022-10-10T17:42:05.895Z,15.73
2022-10-10T17:47:03.563Z,17.58
2022-10-10T17:52:00.859Z,17.40
2022-10-10T17:56:57.659Z,20.65
2022-10-10T18:01:58.229Z,17.55
2022-10-10T18:06:58.153Z,13.50
2022-10-10T18:11:58.874Z,18.75
2022-10-10T18:17:01.748Z,15.40
2022-10-10T18:22:02.432Z,18.15
2022-10-10T18:27:04.349Z,21.52
2022-10-10T18:32:02.468Z,21.23
2022-10-10T18:36:59.800Z,16.80
2022-10-10T18:41:53.610Z,16.20
2022-10-10T18:46:47.746Z,18.98
2022-10-10T18:51:43.861Z,20.55
2022-10-10T18:56:38.805Z,33.60
2022-10-10T19:01:36.899Z,18.85
2022-10-10T19:06:31.431Z,18.95
2022-10-10T19:11:30.186Z,19.15
2022-10-10T19:16:23.913Z,17.85
2022-10-10T19:21:18.042Z,22.70
2022-10-10T19:26:13.995Z,19.38
2022-10-10T19:31:12.104Z,21.25
2022-10-10T19:36:09.980Z,19.60
2022-10-10T19:41:07.466Z,33.65
2022-10-10T19:46:05.963Z,15.75
2022-10-10T19:50:59.834Z,16.00
2022-10-10T19:56:02.298Z,18.92
2022-10-10T20:00:55.943Z,20.35
2022-10-10T20:05:49.195Z,19.00
2022-10-10T20:10:43.095Z,21.80
2022-10-10T20:15:45.957Z,18.23
2022-10-10T20:20:43.417Z,20.35
2022-10-10T20:25:40.534Z,19.35
2022-10-10T20:30:34.645Z,22.65
2022-10-10T20:35:28.167Z,20.63
2022-10-10T20:40:21.717Z,23.92
2022-10-10T20:45:14.888Z,18.77
2022-10-10T20:50:09.045Z,21.45
2022-10-10T20:55:02.838Z,20.50
2022-10-10T20:59:59.130Z,19.63
2022-10-10T21:04:57.768Z,22.02
2022-10-10T21:09:57.150Z,26.02
2022-10-10T21:14:55.759Z,19.13
2022-10-10T21:19:51.012Z,23.00
2022-10-10T21:24:48.784Z,27.58
2022-10-10T21:29:42.596Z,32.55
2022-10-10T21:34:37.151Z,20.98
2022-10-10T21:39:31.352Z,21.80
2022-10-10T21:44:24.249Z,22.92
2022-10-10T21:49:18.183Z,25.15
2022-10-10T21:54:12.730Z,21.52
2022-10-10T21:59:06.671Z,21.00
2022-10-10T22:04:00.199Z,25.20
2022-10-10T22:08:57.050Z,24.95
2022-10-10T22:13:50.863Z,26.52
2022-10-10T22:18:43.567Z,22.77
2022-10-10T22:23:38.077Z,28.02
2022-10-10T22:28:32.079Z,22.70
2022-10-10T22:33:26.425Z,23.90
2022-10-10T22:38:20.599Z,24.80
2022-10-10T22:43:15.001Z,20.48
2022-10-10T22:48:09.203Z,19.40
2022-10-10T22:53:02.490Z,30.17
2022-10-10T22:57:55.594Z,21.75
2022-10-10T23:02:49.497Z,21.88
2022-10-10T23:07:43.419Z,23.50
2022-10-10T23:12:37.104Z,22.00
2022-10-10T23:17:30.964Z,29.98
2022-10-10T23:22:24.851Z,20.50
2022-10-10T23:27:19.094Z,23.65
2022-10-10T23:32:13.061Z,27.55
2022-10-10T23:37:06.484Z,24.13
2022-10-10T23:42:01.464Z,26.58
2022-10-10T23:46:55.417Z,20.35
2022-10-10T23:51:49.206Z,21.65
2022-10-10T23:56:43.050Z,23.13
